Terminal Aerodrome Forecast
Issued by NWS

Home | Current Version | Previous Version | Text Only | Print | Product List | Glossary On
Versions: 1 2 3 4 5 6 7 8 9 10 11 12 13 14 15 16 17 18
000
FTUS42 KMHX 231100
TAFPGV
TAF
KPGV 231120Z 2312/2412 04005KT P6SM OVC200
     FM231400 03008G16KT P6SM BKN070
     FM232300 04007KT P6SM VCSH BKN050
     FM240800 02007KT P6SM -RA OVC025
      AMD LTD TO CLD VIS AND WIND=

USA.gov is the U.S. government's official web portal to all federal, state and local government web resources and services.